createdAt,value
2019-04-23T00:05:29.111Z,4.27
2019-04-23T00:10:24.823Z,5.30
2019-04-23T00:12:49.731Z,5.10
2019-04-23T00:17:50.512Z,5.30
2019-04-23T00:20:19.662Z,5.40
2019-04-23T00:22:58.970Z,6.07
2019-04-23T00:27:51.578Z,5.73
2019-04-23T00:30:18.753Z,5.77
2019-04-23T00:32:48.010Z,5.17
2019-04-23T00:35:19.926Z,5.53
2019-04-23T00:37:49.966Z,6.03
2019-04-23T00:40:20.292Z,5.60
2019-04-23T00:45:33.297Z,6.00
2019-04-23T00:47:59.375Z,5.90
2019-04-23T00:52:57.695Z,5.67
2019-04-23T00:55:28.212Z,5.47
2019-04-23T00:58:08.189Z,6.17
2019-04-23T01:08:13.520Z,6.50
2019-04-23T01:13:25.155Z,6.57
2019-04-23T01:18:30.241Z,5.90
2019-04-23T01:20:50.262Z,5.87
2019-04-23T01:22:57.401Z,6.30
2019-04-23T01:25:35.082Z,5.83
2019-04-23T01:28:23.492Z,6.07
2019-04-23T01:30:59.723Z,6.03
2019-04-23T01:33:27.068Z,6.63
2019-04-23T01:36:06.403Z,6.17
2019-04-23T01:38:32.536Z,6.60
2019-04-23T01:40:47.516Z,6.60
2019-04-23T01:43:23.781Z,6.83
2019-04-23T01:45:50.127Z,6.53
2019-04-23T01:48:24.355Z,6.03
2019-04-23T01:50:52.869Z,6.57
2019-04-23T01:53:27.245Z,6.43
2019-04-23T01:55:51.191Z,6.50
2019-04-23T01:58:32.182Z,6.47
2019-04-23T02:00:53.135Z,6.20
2019-04-23T02:03:24.547Z,6.90
2019-04-23T02:05:55.764Z,6.77
2019-04-23T02:08:20.719Z,6.87
2019-04-23T02:10:58.748Z,6.70
2019-04-23T02:13:28.987Z,7.20
2019-04-23T02:15:53.837Z,6.67
2019-04-23T02:18:24.982Z,6.20
2019-04-23T02:20:53.658Z,5.93
2019-04-23T02:23:28.027Z,6.80
2019-04-23T02:28:31.143Z,6.20
2019-04-23T02:36:08.227Z,6.57
2019-04-23T02:41:12.862Z,6.57
2019-04-23T02:43:29.863Z,6.37
2019-04-23T02:46:05.571Z,7.07
2019-04-23T02:56:37.615Z,7.87
2019-04-23T02:58:54.882Z,7.80
2019-04-23T03:09:00.750Z,7.53
2019-04-23T03:26:51.605Z,8.23
2019-04-23T03:29:10.592Z,7.37
2019-04-23T03:39:30.083Z,8.03
2019-04-23T03:42:16.340Z,7.90
2019-04-23T03:44:31.460Z,8.37
2019-04-23T03:46:49.897Z,8.07
2019-04-23T03:49:32.553Z,8.50
2019-04-23T03:52:04.435Z,8.07
2019-04-23T04:07:10.134Z,8.10
2019-04-23T04:09:45.741Z,8.17
2019-04-23T04:12:04.337Z,8.50
2019-04-23T04:17:10.243Z,8.20
2019-04-23T04:19:42.360Z,8.93
2019-04-23T04:22:11.440Z,8.57
2019-04-23T04:27:19.272Z,8.13
2019-04-23T04:30:03.974Z,8.77
2019-04-23T04:35:12.803Z,8.80
2019-04-23T04:42:14.650Z,8.23
2019-04-23T04:45:13.631Z,8.07
2019-04-23T04:47:36.067Z,8.80
2019-04-23T04:54:49.806Z,8.73
2019-04-23T05:02:53.090Z,8.83
2019-04-23T05:07:35.953Z,8.93
2019-04-23T05:17:44.908Z,8.57
2019-04-23T05:20:05.042Z,8.20
2019-04-23T05:22:33.761Z,8.37
2019-04-23T05:27:48.342Z,8.77
2019-04-23T05:32:43.529Z,9.10
2019-04-23T05:35:15.079Z,8.60
2019-04-23T05:37:50.374Z,9.00
2019-04-23T05:40:15.184Z,8.77
2019-04-23T05:42:41.273Z,9.07
2019-04-23T05:45:08.312Z,7.83
2019-04-23T05:47:34.673Z,8.80
2019-04-23T05:55:10.659Z,8.73
2019-04-23T05:57:38.537Z,8.70
2019-04-23T06:02:57.293Z,8.33
2019-04-23T06:05:22.209Z,8.80
2019-04-23T06:07:49.383Z,8.77
2019-04-23T06:12:57.778Z,8.97
2019-04-23T06:15:31.574Z,7.90
2019-04-23T06:18:01.782Z,8.30
2019-04-23T06:20:35.011Z,8.17
2019-04-23T06:23:11.254Z,8.70
2019-04-23T06:28:01.565Z,8.30
2019-04-23T06:30:49.091Z,8.20
2019-04-23T06:32:59.654Z,8.60
2019-04-23T06:35:31.990Z,8.03
2019-04-23T06:38:39.147Z,8.67
2019-04-23T06:40:34.276Z,7.43
2019-04-23T06:43:02.200Z,8.27
2019-04-23T06:45:30.640Z,7.97
2019-04-23T06:48:03.370Z,8.10
2019-04-23T06:50:29.930Z,8.13
2019-04-23T06:52:54.550Z,7.90
2019-04-23T06:55:30.237Z,8.07
2019-04-23T06:58:08.942Z,7.90
2019-04-23T07:02:59.759Z,7.77
2019-04-23T07:05:29.828Z,8.00
2019-04-23T07:08:05.891Z,7.70
2019-04-23T07:10:35.262Z,7.77
2019-04-23T07:13:03.162Z,7.07
2019-04-23T07:15:38.038Z,7.57
2019-04-23T07:17:55.352Z,8.23
2019-04-23T07:20:27.356Z,8.00
2019-04-23T07:23:07.888Z,7.00
2019-04-23T07:25:47.058Z,8.10
2019-04-23T07:28:06.921Z,8.53
2019-04-23T07:33:04.551Z,7.53
2019-04-23T07:35:31.809Z,7.20
2019-04-23T07:38:16.541Z,8.13
2019-04-23T07:45:35.265Z,7.50
2019-04-23T07:48:06.525Z,7.37
2019-04-23T07:53:05.551Z,7.65
2019-04-23T07:55:44.871Z,6.80
2019-04-23T07:58:10.617Z,6.72
2019-04-23T08:03:14.442Z,7.12
2019-04-23T08:08:00.221Z,7.20
2019-04-23T08:13:14.433Z,6.83
2019-04-23T08:15:35.305Z,7.33
2019-04-23T08:18:02.740Z,7.08
2019-04-23T08:20:35.691Z,6.83
2019-04-23T08:23:03.765Z,7.13
2019-04-23T08:25:34.045Z,7.22
2019-04-23T08:28:12.111Z,7.92
2019-04-23T08:33:12.085Z,6.87
2019-04-23T08:35:43.289Z,7.17
2019-04-23T08:38:20.539Z,7.55
2019-04-23T08:40:44.365Z,7.78
2019-04-23T08:43:22.161Z,7.50
2019-04-23T08:45:35.386Z,7.70
2019-04-23T08:56:07.644Z,7.78
2019-04-23T09:00:55.316Z,8.25
2019-04-23T09:05:55.882Z,8.48
2019-04-23T09:08:19.286Z,8.28
2019-04-23T09:10:56.685Z,8.35
2019-04-23T09:15:51.797Z,8.48
2019-04-23T09:18:21.025Z,7.90
2019-04-23T09:20:47.990Z,8.33
2019-04-23T09:23:30.903Z,8.18
2019-04-23T09:28:27.680Z,7.62
2019-04-23T09:30:55.510Z,8.03
2019-04-23T09:33:25.930Z,7.45
2019-04-23T09:35:57.280Z,8.00
2019-04-23T09:38:29.871Z,7.80
2019-04-23T09:41:04.008Z,7.92
2019-04-23T09:43:19.321Z,7.95
2019-04-23T09:45:58.039Z,7.53
2019-04-23T09:48:17.476Z,8.03
2019-04-23T09:53:25.197Z,8.05
2019-04-23T09:55:45.471Z,8.55
2019-04-23T09:58:15.467Z,7.90
2019-04-23T10:03:20.161Z,8.10
2019-04-23T10:05:46.079Z,7.33
2019-04-23T10:08:15.320Z,7.95
2019-04-23T10:10:34.355Z,7.67
2019-04-23T10:13:04.326Z,7.47
2019-04-23T10:15:40.052Z,7.97
2019-04-23T10:18:04.568Z,7.65
2019-04-23T10:20:34.527Z,7.83
2019-04-23T10:23:04.364Z,7.70
2019-04-23T10:25:34.291Z,7.60
2019-04-23T10:28:08.537Z,7.72
2019-04-23T10:30:34.260Z,7.97
2019-04-23T10:33:05.447Z,7.53
2019-04-23T10:35:44.553Z,8.43
2019-04-23T10:38:10.014Z,8.15
2019-04-23T10:40:38.878Z,8.93
2019-04-23T10:43:05.430Z,8.15
2019-04-23T10:45:51.381Z,8.15
2019-04-23T10:48:40.260Z,7.47
2019-04-23T10:50:58.806Z,8.88
2019-04-23T10:53:42.782Z,8.83
2019-04-23T10:56:03.730Z,8.23
2019-04-23T11:01:05.051Z,9.08
2019-04-23T11:06:06.835Z,8.68
2019-04-23T11:08:27.785Z,8.55
2019-04-23T11:11:09.465Z,8.28
2019-04-23T11:18:48.826Z,8.13
2019-04-23T11:21:09.650Z,8.28
2019-04-23T11:23:39.252Z,9.25
2019-04-23T11:26:06.971Z,9.43
2019-04-23T11:28:33.313Z,8.45
2019-04-23T11:31:09.390Z,8.95
2019-04-23T11:33:50.983Z,8.80
2019-04-23T11:38:50.798Z,8.40
2019-04-23T11:41:17.033Z,9.15
2019-04-23T11:43:34.328Z,9.10
2019-04-23T11:48:51.336Z,8.90
2019-04-23T11:56:13.614Z,9.70
2019-04-23T11:58:39.678Z,8.88
2019-04-23T12:01:23.727Z,8.80
2019-04-23T12:03:45.663Z,9.53
2019-04-23T12:08:37.847Z,9.25
2019-04-23T12:11:35.420Z,8.63
2019-04-23T12:13:52.624Z,8.73
2019-04-23T12:16:12.155Z,8.73
2019-04-23T12:18:38.749Z,9.05
2019-04-23T12:21:04.745Z,9.43
2019-04-23T12:23:48.412Z,8.90
2019-04-23T12:26:15.512Z,9.90
2019-04-23T12:28:39.812Z,8.70
2019-04-23T12:31:09.836Z,8.13
2019-04-23T12:36:46.771Z,7.55
2019-04-23T12:39:21.887Z,7.33
2019-04-23T12:41:52.327Z,7.03
2019-04-23T12:44:17.836Z,6.10
2019-04-23T12:46:54.211Z,7.08
2019-04-23T12:49:35.703Z,6.58
2019-04-23T12:51:47.270Z,6.40
2019-04-23T12:54:31.899Z,6.78
2019-04-23T12:59:28.629Z,7.53
2019-04-23T13:02:16.117Z,6.97
2019-04-23T13:04:24.948Z,7.28
2019-04-23T13:06:57.556Z,6.47
2019-04-23T13:09:41.891Z,7.15
2019-04-23T13:14:41.654Z,7.62
2019-04-23T13:17:09.728Z,7.00
2019-04-23T13:19:49.242Z,9.50
2019-04-23T13:22:24.279Z,7.08
2019-04-23T13:24:32.832Z,6.83
2019-04-23T13:27:15.843Z,6.90
2019-04-23T13:32:07.100Z,7.03
2019-04-23T13:34:42.867Z,6.67
2019-04-23T13:37:16.612Z,6.87
2019-04-23T13:39:39.735Z,7.37
2019-04-23T13:42:07.572Z,6.67
2019-04-23T13:44:42.484Z,7.40
2019-04-23T13:47:18.195Z,6.97
2019-04-23T13:49:33.328Z,7.30
2019-04-23T13:52:24.203Z,7.80
2019-04-23T13:54:56.382Z,7.45
2019-04-23T13:59:44.482Z,7.17
2019-04-23T14:02:23.345Z,6.90
2019-04-23T14:07:23.338Z,7.05
2019-04-23T14:10:05.065Z,7.60
2019-04-23T14:12:17.703Z,7.58
2019-04-23T14:17:26.896Z,7.67
2019-04-23T14:19:47.255Z,7.40
2019-04-23T14:24:59.276Z,7.15
2019-04-23T14:27:20.072Z,6.95
2019-04-23T14:32:24.683Z,5.70
2019-04-23T14:34:54.654Z,6.80
2019-04-23T14:39:47.646Z,6.65
2019-04-23T14:44:52.407Z,7.30
2019-04-23T14:47:23.861Z,6.85
2019-04-23T14:50:10.263Z,6.70
2019-04-23T14:52:21.309Z,6.30
2019-04-23T14:59:46.821Z,6.75
2019-04-23T15:02:23.582Z,6.20
2019-04-23T15:04:51.781Z,6.47
2019-04-23T15:07:24.234Z,6.37
2019-04-23T15:09:57.627Z,6.42
2019-04-23T15:14:54.369Z,6.90
2019-04-23T15:22:20.362Z,7.10
2019-04-23T15:28:00.814Z,7.00
2019-04-23T15:29:30.237Z,7.10
2019-04-23T15:32:19.860Z,6.65
2019-04-23T15:37:39.649Z,7.12
2019-04-23T15:40:04.282Z,7.37
2019-04-23T15:42:34.857Z,6.55
2019-04-23T15:45:08.157Z,7.08
2019-04-23T15:50:03.180Z,7.17
2019-04-23T15:52:33.333Z,6.97
2019-04-23T15:55:01.655Z,7.87
2019-04-23T15:57:49.935Z,6.45
2019-04-23T15:59:56.004Z,7.20
2019-04-23T16:01:58.381Z,7.37
2019-04-23T16:04:29.683Z,7.62
2019-04-23T16:06:59.546Z,7.15
2019-04-23T16:12:31.874Z,7.03
2019-04-23T16:15:06.500Z,7.15
2019-04-23T16:17:37.796Z,7.65
2019-04-23T16:20:25.830Z,7.72
2019-04-23T16:22:36.711Z,8.00
2019-04-23T16:25:06.681Z,8.00
2019-04-23T16:27:32.001Z,8.20
2019-04-23T16:32:37.760Z,8.30
2019-04-23T16:35:18.230Z,8.53
2019-04-23T16:37:38.843Z,8.20
2019-04-23T16:40:13.795Z,9.03
2019-04-23T16:42:38.222Z,8.43
2019-04-23T16:45:12.557Z,8.05
2019-04-23T16:47:38.794Z,7.92
2019-04-23T16:52:32.647Z,8.40
2019-04-23T16:55:14.286Z,8.05
2019-04-23T16:57:43.722Z,7.83
2019-04-23T17:02:33.685Z,8.35
2019-04-23T17:05:15.800Z,8.33
2019-04-23T17:07:36.859Z,8.83
2019-04-23T17:10:12.679Z,8.55
2019-04-23T17:12:37.945Z,8.48
2019-04-23T17:15:10.913Z,8.25
2019-04-23T17:17:30.989Z,8.08
2019-04-23T17:20:24.901Z,8.33
2019-04-23T17:22:39.291Z,8.23
2019-04-23T17:25:13.399Z,8.35
2019-04-23T17:27:41.843Z,8.88
2019-04-23T17:30:14.665Z,9.23
2019-04-23T17:32:38.716Z,9.00
2019-04-23T17:35:17.583Z,8.03
2019-04-23T17:37:40.987Z,8.48
2019-04-23T17:40:15.433Z,8.68
2019-04-23T17:42:39.347Z,8.15
2019-04-23T17:47:52.514Z,8.65
2019-04-23T17:50:25.115Z,8.20
2019-04-23T17:52:58.307Z,8.73
2019-04-23T17:57:55.942Z,9.33
2019-04-23T18:00:25.478Z,9.13
2019-04-23T18:05:36.335Z,7.78
2019-04-23T18:12:53.673Z,8.20
2019-04-23T18:15:15.496Z,9.08
2019-04-23T18:20:31.628Z,8.90
2019-04-23T18:22:58.501Z,8.95
2019-04-23T18:25:26.187Z,9.80
2019-04-23T18:30:17.817Z,10.25
2019-04-23T18:33:22.283Z,9.18
2019-04-23T18:37:56.488Z,9.08
2019-04-23T18:40:28.468Z,9.30
2019-04-23T18:43:07.309Z,9.70
2019-04-23T18:45:39.094Z,9.73
2019-04-23T18:47:54.834Z,9.85
2019-04-23T18:50:45.559Z,10.45
2019-04-23T18:53:02.336Z,9.80
2019-04-23T18:58:15.511Z,9.68
2019-04-23T19:00:45.431Z,8.93
2019-04-23T19:05:36.226Z,9.15
2019-04-23T19:08:07.633Z,9.30
2019-04-23T19:10:31.832Z,9.58
2019-04-23T19:13:03.441Z,9.38
2019-04-23T19:15:37.083Z,9.38
2019-04-23T19:18:12.377Z,9.05
2019-04-23T19:20:45.244Z,9.17
2019-04-23T19:23:19.435Z,9.15
2019-04-23T19:25:25.924Z,9.18
2019-04-23T19:30:43.129Z,9.13
2019-04-23T19:33:05.558Z,9.65
2019-04-23T19:35:50.213Z,9.10
2019-04-23T19:38:08.178Z,8.58
2019-04-23T19:43:11.158Z,9.43
2019-04-23T19:50:53.662Z,8.78
2019-04-23T19:55:57.129Z,9.05
2019-04-23T19:58:14.194Z,9.30
2019-04-23T20:05:59.481Z,9.05
2019-04-23T20:08:34.000Z,9.20
2019-04-23T20:10:50.440Z,9.10
2019-04-23T20:13:30.352Z,8.95
2019-04-23T20:18:21.885Z,8.73
2019-04-23T20:23:40.421Z,9.20
2019-04-23T20:26:12.225Z,8.43
2019-04-23T20:28:41.073Z,9.58
2019-04-23T20:31:03.985Z,10.05
2019-04-23T20:35:56.625Z,8.78
2019-04-23T20:38:33.007Z,9.25
2019-04-23T20:43:23.766Z,8.55
2019-04-23T20:45:55.997Z,8.93
2019-04-23T20:48:25.261Z,8.50
2019-04-23T20:53:28.380Z,9.13
2019-04-23T20:58:13.756Z,9.20
2019-04-23T21:00:57.009Z,10.08
2019-04-23T21:05:41.884Z,9.43
2019-04-23T21:08:24.550Z,9.23
2019-04-23T21:10:58.455Z,9.85
2019-04-23T21:18:22.488Z,8.43
2019-04-23T21:21:05.048Z,9.03
2019-04-23T21:23:21.149Z,8.90
2019-04-23T21:25:47.489Z,8.93
2019-04-23T21:28:30.729Z,8.93
2019-04-23T21:31:03.466Z,8.78
2019-04-23T21:33:30.144Z,8.98
2019-04-23T21:36:02.869Z,8.90
2019-04-23T21:38:30.259Z,8.25
2019-04-23T21:43:38.854Z,8.48
2019-04-23T21:46:02.469Z,7.67
2019-04-23T21:48:31.338Z,8.70
2019-04-23T21:50:57.812Z,8.88
2019-04-23T21:53:29.222Z,8.65
2019-04-23T21:56:06.955Z,8.85
2019-04-23T21:58:26.193Z,7.35
2019-04-23T22:00:59.350Z,8.10
2019-04-23T22:03:30.786Z,8.35
2019-04-23T22:06:01.719Z,8.03
2019-04-23T22:08:16.917Z,8.35
2019-04-23T22:11:10.697Z,8.73
2019-04-23T22:13:29.430Z,7.33
2019-04-23T22:18:23.525Z,7.72
2019-04-23T22:23:42.007Z,7.22
2019-04-23T22:26:07.942Z,7.10
2019-04-23T22:28:43.401Z,7.37
2019-04-23T22:31:12.392Z,7.37
2019-04-23T22:33:37.362Z,7.30
2019-04-23T22:36:14.966Z,7.08
2019-04-23T22:38:33.761Z,7.03
2019-04-23T22:41:02.028Z,7.72
2019-04-23T22:48:34.612Z,6.85
2019-04-23T22:53:41.752Z,6.37
2019-04-23T22:56:06.549Z,7.28
2019-04-23T22:58:48.976Z,6.67
2019-04-23T23:01:12.706Z,7.05
2019-04-23T23:03:33.655Z,6.60
2019-04-23T23:08:50.309Z,6.47
2019-04-23T23:11:02.341Z,7.00
2019-04-23T23:13:50.298Z,6.28
2019-04-23T23:16:16.743Z,6.20
2019-04-23T23:18:34.068Z,6.65
2019-04-23T23:21:09.763Z,6.03
2019-04-23T23:23:30.088Z,6.40
2019-04-23T23:26:15.630Z,6.97
2019-04-23T23:28:37.950Z,6.28
2019-04-23T23:31:08.520Z,6.65
2019-04-23T23:33:41.225Z,6.00
2019-04-23T23:36:10.468Z,6.87
2019-04-23T23:38:42.156Z,6.17
2019-04-23T23:41:14.134Z,6.75
2019-04-23T23:43:29.987Z,7.17
2019-04-23T23:46:13.975Z,7.35
2019-04-23T23:48:36.042Z,6.47
2019-04-23T23:51:11.630Z,7.75
2019-04-23T23:53:51.618Z,7.55
2019-04-23T23:58:40.705Z,7.20
